sensor_id;sensor_type;location;lat;lon;timestamp;pressure;altitude;pressure_sealevel;temperature;humidity
44992;BME280;56865;51.618;7.406;2023-06-26T00:01:28;100554.44;;;37.48;nan
44992;BME280;56865;51.618;7.406;2023-06-26T00:03:58;100553.44;;;37.08;nan
44992;BME280;56865;51.618;7.406;2023-06-26T00:06:29;100554.44;;;37.17;nan
44992;BME280;56865;51.618;7.406;2023-06-26T00:08:58;100551.75;;;37.07;nan
44992;BME280;56865;51.618;7.406;2023-06-26T00:11:28;100550.69;;;37.19;nan
44992;BME280;56865;51.618;7.406;2023-06-26T00:13:59;100554.41;;;37.38;nan
44992;BME280;56865;51.618;7.406;2023-06-26T00:16:32;100550.91;;;37.47;nan
44992;BME280;56865;51.618;7.406;2023-06-26T00:19:01;100548.78;;;37.92;nan
44992;BME280;56865;51.618;7.406;2023-06-26T00:21:31;100550.13;;;37.56;nan
44992;BME280;56865;51.618;7.406;2023-06-26T00:24:01;100537.25;;;37.62;nan
44992;BME280;56865;51.618;7.406;2023-06-26T00:26:30;100544.94;;;37.65;nan
44992;BME280;56865;51.618;7.406;2023-06-26T00:29:01;100544.38;;;37.71;nan
44992;BME280;56865;51.618;7.406;2023-06-26T00:31:33;100542.59;;;37.31;nan
44992;BME280;56865;51.618;7.406;2023-06-26T00:34:04;100543.94;;;37.56;nan
44992;BME280;56865;51.618;7.406;2023-06-26T00:36:34;100542.66;;;37.40;nan
44992;BME280;56865;51.618;7.406;2023-06-26T00:39:04;100534.44;;;37.13;nan
44992;BME280;56865;51.618;7.406;2023-06-26T00:41:33;100534.03;;;37.17;nan
44992;BME280;56865;51.618;7.406;2023-06-26T00:44:03;100543.53;;;36.37;nan
44992;BME280;56865;51.618;7.406;2023-06-26T00:46:36;100535.88;;;36.11;nan
44992;BME280;56865;51.618;7.406;2023-06-26T00:49:06;100532.53;;;36.09;nan
44992;BME280;56865;51.618;7.406;2023-06-26T00:51:35;100538.69;;;36.09;nan
44992;BME280;56865;51.618;7.406;2023-06-26T00:54:05;100530.06;;;35.85;nan
44992;BME280;56865;51.618;7.406;2023-06-26T00:56:35;100536.22;;;35.85;nan
44992;BME280;56865;51.618;7.406;2023-06-26T00:59:06;100525.09;;;36.03;nan
44992;BME280;56865;51.618;7.406;2023-06-26T01:01:38;100526.50;;;36.07;nan
44992;BME280;56865;51.618;7.406;2023-06-26T01:04:08;100525.09;;;35.59;nan
44992;BME280;56865;51.618;7.406;2023-06-26T01:06:44;100523.00;;;36.06;nan
44992;BME280;56865;51.618;7.406;2023-06-26T01:09:18;100522.50;;;35.80;nan
44992;BME280;56865;51.618;7.406;2023-06-26T01:11:48;100520.44;;;35.72;nan
44992;BME280;56865;51.618;7.406;2023-06-26T01:14:18;100513.41;;;35.50;nan
44992;BME280;56865;51.618;7.406;2023-06-26T01:16:50;100511.75;;;35.82;nan
44992;BME280;56865;51.618;7.406;2023-06-26T01:19:24;100505.56;;;35.92;nan
44992;BME280;56865;51.618;7.406;2023-06-26T01:21:57;100509.16;;;36.87;nan
44992;BME280;56865;51.618;7.406;2023-06-26T01:24:30;100507.06;;;36.06;nan
44992;BME280;56865;51.618;7.406;2023-06-26T01:27:06;100503.19;;;35.89;nan
44992;BME280;56865;51.618;7.406;2023-06-26T01:29:36;100499.25;;;36.05;nan
44992;BME280;56865;51.618;7.406;2023-06-26T01:32:08;100497.53;;;35.83;nan
44992;BME280;56865;51.618;7.406;2023-06-26T01:34:42;100497.53;;;35.83;nan
44992;BME280;56865;51.618;7.406;2023-06-26T01:37:13;100493.31;;;35.91;nan
44992;BME280;56865;51.618;7.406;2023-06-26T01:39:42;100498.56;;;36.45;nan
44992;BME280;56865;51.618;7.406;2023-06-26T01:42:15;100492.13;;;36.38;nan
44992;BME280;56865;51.618;7.406;2023-06-26T01:47:38;100485.13;;;36.68;nan
44992;BME280;56865;51.618;7.406;2023-06-26T01:50:12;100481.78;;;36.23;nan
44992;BME280;56865;51.618;7.406;2023-06-26T01:52:46;100485.00;;;36.69;nan
44992;BME280;56865;51.618;7.406;2023-06-26T01:55:24;100479.81;;;36.68;nan
44992;BME280;56865;51.618;7.406;2023-06-26T01:58:01;100480.00;;;36.76;nan
44992;BME280;56865;51.618;7.406;2023-06-26T02:03:42;100480.03;;;36.34;nan
44992;BME280;56865;51.618;7.406;2023-06-26T02:09:08;100471.94;;;36.56;nan
44992;BME280;56865;51.618;7.406;2023-06-26T02:11:45;100477.25;;;36.56;nan
44992;BME280;56865;51.618;7.406;2023-06-26T02:14:18;100475.53;;;36.46;nan
44992;BME280;56865;51.618;7.406;2023-06-26T02:19:58;100484.78;;;36.51;nan
44992;BME280;56865;51.618;7.406;2023-06-26T02:25:17;100481.66;;;36.46;nan
44992;BME280;56865;51.618;7.406;2023-06-26T02:27:47;100484.63;;;36.53;nan
44992;BME280;56865;51.618;7.406;2023-06-26T02:30:19;100482.69;;;36.34;nan
44992;BME280;56865;51.618;7.406;2023-06-26T02:36:04;100477.97;;;36.37;nan
44992;BME280;56865;51.618;7.406;2023-06-26T02:38:34;100482.38;;;36.27;nan
44992;BME280;56865;51.618;7.406;2023-06-26T02:41:04;100485.03;;;36.48;nan
44992;BME280;56865;51.618;7.406;2023-06-26T02:43:33;100483.50;;;36.46;nan
44992;BME280;56865;51.618;7.406;2023-06-26T02:46:06;100484.25;;;36.36;nan
44992;BME280;56865;51.618;7.406;2023-06-26T02:48:35;100480.31;;;36.31;nan
44992;BME280;56865;51.618;7.406;2023-06-26T02:51:05;100482.22;;;36.28;nan
44992;BME280;56865;51.618;7.406;2023-06-26T02:53:35;100479.56;;;36.28;nan
44992;BME280;56865;51.618;7.406;2023-06-26T02:56:04;100479.84;;;36.25;nan
44992;BME280;56865;51.618;7.406;2023-06-26T02:58:34;100484.88;;;36.28;nan
44992;BME280;56865;51.618;7.406;2023-06-26T03:01:06;100483.19;;;36.27;nan
44992;BME280;56865;51.618;7.406;2023-06-26T03:03:36;100488.06;;;36.22;nan
44992;BME280;56865;51.618;7.406;2023-06-26T03:06:07;100476.19;;;36.26;nan
44992;BME280;56865;51.618;7.406;2023-06-26T03:08:36;100497.00;;;36.21;nan
44992;BME280;56865;51.618;7.406;2023-06-26T03:11:07;100496.75;;;36.24;nan
44992;BME280;56865;51.618;7.406;2023-06-26T03:13:37;100488.25;;;36.31;nan
44992;BME280;56865;51.618;7.406;2023-06-26T03:16:09;100488.00;;;36.34;nan
44992;BME280;56865;51.618;7.406;2023-06-26T03:18:39;100485.81;;;36.39;nan
44992;BME280;56865;51.618;7.406;2023-06-26T03:21:08;100493.31;;;36.34;nan
44992;BME280;56865;51.618;7.406;2023-06-26T03:23:39;100504.44;;;36.27;nan
44992;BME280;56865;51.618;7.406;2023-06-26T03:26:08;100498.59;;;36.34;nan
44992;BME280;56865;51.618;7.406;2023-06-26T03:28:41;100503.91;;;36.34;nan
44992;BME280;56865;51.618;7.406;2023-06-26T03:31:14;100502.13;;;36.34;nan
44992;BME280;56865;51.618;7.406;2023-06-26T03:33:43;100508.31;;;36.23;nan
44992;BME280;56865;51.618;7.406;2023-06-26T03:36:13;100499.91;;;36.18;nan
44992;BME280;56865;51.618;7.406;2023-06-26T03:38:43;100502.50;;;36.30;nan
44992;BME280;56865;51.618;7.406;2023-06-26T03:41:13;100501.25;;;36.34;nan
44992;BME280;56865;51.618;7.406;2023-06-26T03:43:42;100518.88;;;36.35;nan
44992;BME280;56865;51.618;7.406;2023-06-26T03:46:15;100521.19;;;36.60;nan
44992;BME280;56865;51.618;7.406;2023-06-26T03:48:44;100512.97;;;36.95;nan
44992;BME280;56865;51.618;7.406;2023-06-26T03:51:14;100513.47;;;36.36;nan
44992;BME280;56865;51.618;7.406;2023-06-26T03:53:44;100516.41;;;36.64;nan
44992;BME280;56865;51.618;7.406;2023-06-26T03:56:14;100515.50;;;36.33;nan
44992;BME280;56865;51.618;7.406;2023-06-26T03:58:44;100510.19;;;36.33;nan
44992;BME280;56865;51.618;7.406;2023-06-26T04:01:16;100514.16;;;36.17;nan
44992;BME280;56865;51.618;7.406;2023-06-26T04:03:48;100510.19;;;36.33;nan
44992;BME280;56865;51.618;7.406;2023-06-26T04:06:18;100522.31;;;36.25;nan
44992;BME280;56865;51.618;7.406;2023-06-26T04:08:48;100521.41;;;35.83;nan
44992;BME280;56865;51.618;7.406;2023-06-26T04:11:17;100520.47;;;36.05;nan
44992;BME280;56865;51.618;7.406;2023-06-26T04:13:47;100518.00;;;36.46;nan
44992;BME280;56865;51.618;7.406;2023-06-26T04:16:20;100515.25;;;36.15;nan
44992;BME280;56865;51.618;7.406;2023-06-26T04:18:52;100523.69;;;35.87;nan
44992;BME280;56865;51.618;7.406;2023-06-26T04:21:23;100531.94;;;36.26;nan
44992;BME280;56865;51.618;7.406;2023-06-26T04:23:53;100525.81;;;36.26;nan
44992;BME280;56865;51.618;7.406;2023-06-26T04:26:22;100524.38;;;36.01;nan
44992;BME280;56865;51.618;7.406;2023-06-26T04:28:54;100541.88;;;36.24;nan
44992;BME280;56865;51.618;7.406;2023-06-26T04:31:26;100532.66;;;36.28;nan
44992;BME280;56865;51.618;7.406;2023-06-26T04:33:56;100542.63;;;36.15;nan
44992;BME280;56865;51.618;7.406;2023-06-26T04:36:26;100539.50;;;35.89;nan
44992;BME280;56865;51.618;7.406;2023-06-26T04:38:56;100549.63;;;36.16;nan
44992;BME280;56865;51.618;7.406;2023-06-26T04:41:26;100546.88;;;36.18;nan
44992;BME280;56865;51.618;7.406;2023-06-26T04:43:55;100547.78;;;36.28;nan
44992;BME280;56865;51.618;7.406;2023-06-26T04:46:28;100547.91;;;36.90;nan
44992;BME280;56865;51.618;7.406;2023-06-26T04:48:58;100553.34;;;37.19;nan
44992;BME280;56865;51.618;7.406;2023-06-26T04:51:29;100550.97;;;36.43;nan
44992;BME280;56865;51.618;7.406;2023-06-26T04:53:59;100557.00;;;36.12;nan
44992;BME280;56865;51.618;7.406;2023-06-26T04:56:29;100568.50;;;36.55;nan
44992;BME280;56865;51.618;7.406;2023-06-26T04:58:59;100566.25;;;36.72;nan
44992;BME280;56865;51.618;7.406;2023-06-26T05:01:31;100565.09;;;36.43;nan
44992;BME280;56865;51.618;7.406;2023-06-26T05:04:02;100573.50;;;36.16;nan
44992;BME280;56865;51.618;7.406;2023-06-26T05:06:31;100569.00;;;35.95;nan
44992;BME280;56865;51.618;7.406;2023-06-26T05:09:01;100572.25;;;35.99;nan
44992;BME280;56865;51.618;7.406;2023-06-26T05:11:31;100572.81;;;36.14;nan
44992;BME280;56865;51.618;7.406;2023-06-26T05:14:00;100579.34;;;36.64;nan
44992;BME280;56865;51.618;7.406;2023-06-26T05:16:33;100569.00;;;36.28;nan
44992;BME280;56865;51.618;7.406;2023-06-26T05:19:03;100584.63;;;35.55;nan
44992;BME280;56865;51.618;7.406;2023-06-26T05:21:33;100576.75;;;35.87;nan
44992;BME280;56865;51.618;7.406;2023-06-26T05:24:03;100579.16;;;36.23;nan
44992;BME280;56865;51.618;7.406;2023-06-26T05:26:34;100587.09;;;36.98;nan
44992;BME280;56865;51.618;7.406;2023-06-26T05:29:04;100578.22;;;36.66;nan
44992;BME280;56865;51.618;7.406;2023-06-26T05:31:37;100575.56;;;36.66;nan
44992;BME280;56865;51.618;7.406;2023-06-26T05:34:11;100582.75;;;36.97;nan
44992;BME280;56865;51.618;7.406;2023-06-26T05:36:41;100583.41;;;36.68;nan
44992;BME280;56865;51.618;7.406;2023-06-26T05:39:11;100589.25;;;37.35;nan
44992;BME280;56865;51.618;7.406;2023-06-26T05:41:41;100598.22;;;37.34;nan
44992;BME280;56865;51.618;7.406;2023-06-26T05:44:10;100596.28;;;37.15;nan
44992;BME280;56865;51.618;7.406;2023-06-26T05:46:43;100609.25;;;36.44;nan
44992;BME280;56865;51.618;7.406;2023-06-26T05:49:13;100605.16;;;37.25;nan
44992;BME280;56865;51.618;7.406;2023-06-26T05:51:43;100609.53;;;37.05;nan
44992;BME280;56865;51.618;7.406;2023-06-26T05:54:13;100608.13;;;37.11;nan
44992;BME280;56865;51.618;7.406;2023-06-26T05:56:43;100619.78;;;37.19;nan
44992;BME280;56865;51.618;7.406;2023-06-26T05:59:13;100624.41;;;37.48;nan
44992;BME280;56865;51.618;7.406;2023-06-26T06:01:46;100616.84;;;37.13;nan
44992;BME280;56865;51.618;7.406;2023-06-26T06:04:16;100619.41;;;37.24;nan
44992;BME280;56865;51.618;7.406;2023-06-26T06:06:46;100626.25;;;37.48;nan
44992;BME280;56865;51.618;7.406;2023-06-26T06:09:16;100618.81;;;37.92;nan
44992;BME280;56865;51.618;7.406;2023-06-26T06:11:46;100615.75;;;37.97;nan
44992;BME280;56865;51.618;7.406;2023-06-26T06:14:15;100618.63;;;37.33;nan
44992;BME280;56865;51.618;7.406;2023-06-26T06:16:48;100627.69;;;37.00;nan
44992;BME280;56865;51.618;7.406;2023-06-26T06:19:18;100641.75;;;36.90;nan
44992;BME280;56865;51.618;7.406;2023-06-26T06:21:48;100639.84;;;36.81;nan
44992;BME280;56865;51.618;7.406;2023-06-26T06:24:17;100640.56;;;36.83;nan
44992;BME280;56865;51.618;7.406;2023-06-26T06:26:48;100646.13;;;36.38;nan
44992;BME280;56865;51.618;7.406;2023-06-26T06:29:18;100655.91;;;36.91;nan
44992;BME280;56865;51.618;7.406;2023-06-26T06:31:51;100649.09;;;36.33;nan
44992;BME280;56865;51.618;7.406;2023-06-26T06:34:21;100645.78;;;36.85;nan
44992;BME280;56865;51.618;7.406;2023-06-26T06:36:50;100632.13;;;36.89;nan
44992;BME280;56865;51.618;7.406;2023-06-26T06:39:20;100634.13;;;36.97;nan
44992;BME280;56865;51.618;7.406;2023-06-26T06:41:50;100640.59;;;36.18;nan
44992;BME280;56865;51.618;7.406;2023-06-26T06:44:19;100652.03;;;36.19;nan
44992;BME280;56865;51.618;7.406;2023-06-26T06:46:52;100667.34;;;36.26;nan
44992;BME280;56865;51.618;7.406;2023-06-26T06:49:22;100649.59;;;36.38;nan
44992;BME280;56865;51.618;7.406;2023-06-26T06:51:51;100654.78;;;36.28;nan
44992;BME280;56865;51.618;7.406;2023-06-26T06:54:21;100648.03;;;36.68;nan
44992;BME280;56865;51.618;7.406;2023-06-26T06:56:51;100654.50;;;36.54;nan
44992;BME280;56865;51.618;7.406;2023-06-26T06:59:21;100657.91;;;36.45;nan
44992;BME280;56865;51.618;7.406;2023-06-26T07:01:53;100665.31;;;36.19;nan
44992;BME280;56865;51.618;7.406;2023-06-26T07:04:23;100674.63;;;36.13;nan
44992;BME280;56865;51.618;7.406;2023-06-26T07:06:54;100681.75;;;36.01;nan
44992;BME280;56865;51.618;7.406;2023-06-26T07:09:24;100694.63;;;36.17;nan
44992;BME280;56865;51.618;7.406;2023-06-26T07:11:53;100695.34;;;36.31;nan
44992;BME280;56865;51.618;7.406;2023-06-26T07:14:24;100694.94;;;36.47;nan
44992;BME280;56865;51.618;7.406;2023-06-26T07:16:57;100707.09;;;37.14;nan
44992;BME280;56865;51.618;7.406;2023-06-26T07:19:26;100719.63;;;36.70;nan
44992;BME280;56865;51.618;7.406;2023-06-26T07:21:56;100715.31;;;36.57;nan
44992;BME280;56865;51.618;7.406;2023-06-26T07:24:26;100721.25;;;36.82;nan
44992;BME280;56865;51.618;7.406;2023-06-26T07:26:56;100717.72;;;36.60;nan
44992;BME280;56865;51.618;7.406;2023-06-26T07:29:25;100721.16;;;36.28;nan
44992;BME280;56865;51.618;7.406;2023-06-26T07:31:58;100723.28;;;36.57;nan
44992;BME280;56865;51.618;7.406;2023-06-26T07:34:28;100728.16;;;36.30;nan
44992;BME280;56865;51.618;7.406;2023-06-26T07:36:57;100729.28;;;36.71;nan
44992;BME280;56865;51.618;7.406;2023-06-26T07:39:27;100740.47;;;36.42;nan
44992;BME280;56865;51.618;7.406;2023-06-26T07:41:56;100735.78;;;36.67;nan
44992;BME280;56865;51.618;7.406;2023-06-26T07:44:27;100723.81;;;36.28;nan
44992;BME280;56865;51.618;7.406;2023-06-26T07:47:00;100721.69;;;36.66;nan
44992;BME280;56865;51.618;7.406;2023-06-26T07:49:30;100718.47;;;36.51;nan
44992;BME280;56865;51.618;7.406;2023-06-26T07:52:00;100718.19;;;36.66;nan
44992;BME280;56865;51.618;7.406;2023-06-26T07:54:29;100714.69;;;36.98;nan
44992;BME280;56865;51.618;7.406;2023-06-26T07:57:00;100712.03;;;37.19;nan
44992;BME280;56865;51.618;7.406;2023-06-26T07:59:31;100714.81;;;37.17;nan
44992;BME280;56865;51.618;7.406;2023-06-26T08:02:04;100712.28;;;37.37;nan
44992;BME280;56865;51.618;7.406;2023-06-26T08:04:34;100723.16;;;37.13;nan
44992;BME280;56865;51.618;7.406;2023-06-26T08:07:05;100727.38;;;37.15;nan
44992;BME280;56865;51.618;7.406;2023-06-26T08:09:34;100720.81;;;37.19;nan
44992;BME280;56865;51.618;7.406;2023-06-26T08:12:05;100724.00;;;37.13;nan
44992;BME280;56865;51.618;7.406;2023-06-26T08:14:37;100729.91;;;36.84;nan
44992;BME280;56865;51.618;7.406;2023-06-26T08:17:09;100741.97;;;37.21;nan
44992;BME280;56865;51.618;7.406;2023-06-26T08:19:39;100754.97;;;37.35;nan
44992;BME280;56865;51.618;7.406;2023-06-26T08:22:09;100745.53;;;37.10;nan
44992;BME280;56865;51.618;7.406;2023-06-26T08:24:38;100748.56;;;37.05;nan
44992;BME280;56865;51.618;7.406;2023-06-26T08:27:08;100743.66;;;36.68;nan
44992;BME280;56865;51.618;7.406;2023-06-26T08:29:38;100749.88;;;36.90;nan
44992;BME280;56865;51.618;7.406;2023-06-26T08:32:10;100751.09;;;37.07;nan
44992;BME280;56865;51.618;7.406;2023-06-26T08:34:40;100764.81;;;36.58;nan
44992;BME280;56865;51.618;7.406;2023-06-26T08:37:10;100770.78;;;36.83;nan
44992;BME280;56865;51.618;7.406;2023-06-26T08:39:39;100771.72;;;36.94;nan
44992;BME280;56865;51.618;7.406;2023-06-26T08:42:09;100769.41;;;36.34;nan
44992;BME280;56865;51.618;7.406;2023-06-26T08:44:39;100779.19;;;37.00;nan
44992;BME280;56865;51.618;7.406;2023-06-26T08:47:28;100777.94;;;37.04;nan
44992;BME280;56865;51.618;7.406;2023-06-26T08:50:01;100776.97;;;37.05;nan
44992;BME280;56865;51.618;7.406;2023-06-26T08:52:34;100785.47;;;36.99;nan
44992;BME280;56865;51.618;7.406;2023-06-26T08:55:06;100780.75;;;37.02;nan
44992;BME280;56865;51.618;7.406;2023-06-26T08:57:38;100788.00;;;37.21;nan
44992;BME280;56865;51.618;7.406;2023-06-26T09:00:09;100784.94;;;36.72;nan
44992;BME280;56865;51.618;7.406;2023-06-26T09:02:46;100782.19;;;37.70;nan
44992;BME280;56865;51.618;7.406;2023-06-26T09:05:16;100792.00;;;37.16;nan
44992;BME280;56865;51.618;7.406;2023-06-26T09:07:46;100784.38;;;37.22;nan
44992;BME280;56865;51.618;7.406;2023-06-26T09:10:16;100790.00;;;37.40;nan
44992;BME280;56865;51.618;7.406;2023-06-26T09:12:46;100793.44;;;36.99;nan
44992;BME280;56865;51.618;7.406;2023-06-26T09:15:19;100790.28;;;37.05;nan
44992;BME280;56865;51.618;7.406;2023-06-26T09:17:53;100787.44;;;36.74;nan
44992;BME280;56865;51.618;7.406;2023-06-26T09:20:27;100793.47;;;37.62;nan
44992;BME280;56865;51.618;7.406;2023-06-26T09:23:00;100806.03;;;36.85;nan
44992;BME280;56865;51.618;7.406;2023-06-26T09:25:29;100806.00;;;37.50;nan
44992;BME280;56865;51.618;7.406;2023-06-26T09:27:59;100806.88;;;36.97;nan
44992;BME280;56865;51.618;7.406;2023-06-26T09:30:29;100807.19;;;37.58;nan
44992;BME280;56865;51.618;7.406;2023-06-26T09:33:15;100798.34;;;37.36;nan
44992;BME280;56865;51.618;7.406;2023-06-26T09:35:45;100800.16;;;37.56;nan
44992;BME280;56865;51.618;7.406;2023-06-26T09:38:15;100803.84;;;36.90;nan
44992;BME280;56865;51.618;7.406;2023-06-26T09:40:45;100800.19;;;37.03;nan
44992;BME280;56865;51.618;7.406;2023-06-26T09:43:15;100805.66;;;37.22;nan
44992;BME280;56865;51.618;7.406;2023-06-26T09:45:45;100812.03;;;37.31;nan
44992;BME280;56865;51.618;7.406;2023-06-26T09:48:18;100806.50;;;37.23;nan
44992;BME280;56865;51.618;7.406;2023-06-26T09:50:48;100802.75;;;37.47;nan
44992;BME280;56865;51.618;7.406;2023-06-26T09:53:35;100795.19;;;37.31;nan
44992;BME280;56865;51.618;7.406;2023-06-26T09:56:07;100797.34;;;37.16;nan
44992;BME280;56865;51.618;7.406;2023-06-26T09:58:36;100803.34;;;37.50;nan
44992;BME280;56865;51.618;7.406;2023-06-26T10:01:07;100806.03;;;37.18;nan
44992;BME280;56865;51.618;7.406;2023-06-26T10:03:40;100805.34;;;37.37;nan
44992;BME280;56865;51.618;7.406;2023-06-26T10:06:10;100814.22;;;37.68;nan
44992;BME280;56865;51.618;7.406;2023-06-26T10:08:41;100816.38;;;37.32;nan
44992;BME280;56865;51.618;7.406;2023-06-26T10:11:13;100822.47;;;37.65;nan
44992;BME280;56865;51.618;7.406;2023-06-26T10:13:44;100825.44;;;37.93;nan
44992;BME280;56865;51.618;7.406;2023-06-26T10:16:15;100823.22;;;37.98;nan
44992;BME280;56865;51.618;7.406;2023-06-26T10:18:50;100821.25;;;37.48;nan
44992;BME280;56865;51.618;7.406;2023-06-26T10:21:25;100826.03;;;37.54;nan
44992;BME280;56865;51.618;7.406;2023-06-26T10:23:56;100820.72;;;37.33;nan
44992;BME280;56865;51.618;7.406;2023-06-26T10:26:28;100830.28;;;37.24;nan
44992;BME280;56865;51.618;7.406;2023-06-26T10:28:58;100830.09;;;38.01;nan
44992;BME280;56865;51.618;7.406;2023-06-26T10:31:29;100832.41;;;38.15;nan
44992;BME280;56865;51.618;7.406;2023-06-26T10:34:02;100834.28;;;37.94;nan
44992;BME280;56865;51.618;7.406;2023-06-26T10:36:32;100839.41;;;37.43;nan
44992;BME280;56865;51.618;7.406;2023-06-26T10:39:05;100837.34;;;37.47;nan
44992;BME280;56865;51.618;7.406;2023-06-26T10:41:38;100829.63;;;37.11;nan
44992;BME280;56865;51.618;7.406;2023-06-26T10:44:26;100833.50;;;37.61;nan
44992;BME280;56865;51.618;7.406;2023-06-26T10:46:56;100838.38;;;37.55;nan
44992;BME280;56865;51.618;7.406;2023-06-26T10:49:31;100839.63;;;37.51;nan
44992;BME280;56865;51.618;7.406;2023-06-26T10:52:01;100847.69;;;37.61;nan
44992;BME280;56865;51.618;7.406;2023-06-26T10:54:31;100835.78;;;38.17;nan
44992;BME280;56865;51.618;7.406;2023-06-26T10:57:01;100834.75;;;37.78;nan
44992;BME280;56865;51.618;7.406;2023-06-26T10:59:31;100843.03;;;37.42;nan
44992;BME280;56865;51.618;7.406;2023-06-26T11:02:05;100842.22;;;37.63;nan
44992;BME280;56865;51.618;7.406;2023-06-26T11:04:40;100846.06;;;37.80;nan
44992;BME280;56865;51.618;7.406;2023-06-26T11:07:19;100841.63;;;37.80;nan
44992;BME280;56865;51.618;7.406;2023-06-26T11:09:53;100845.56;;;37.65;nan
44992;BME280;56865;51.618;7.406;2023-06-26T11:12:36;100844.47;;;37.88;nan
44992;BME280;56865;51.618;7.406;2023-06-26T11:15:07;100838.47;;;37.96;nan
44992;BME280;56865;51.618;7.406;2023-06-26T11:17:37;100845.53;;;38.07;nan
44992;BME280;56865;51.618;7.406;2023-06-26T11:20:10;100853.88;;;37.50;nan
44992;BME280;56865;51.618;7.406;2023-06-26T11:22:42;100842.44;;;38.02;nan
44992;BME280;56865;51.618;7.406;2023-06-26T11:25:12;100851.38;;;37.70;nan
44992;BME280;56865;51.618;7.406;2023-06-26T11:27:42;100864.72;;;37.59;nan
44992;BME280;56865;51.618;7.406;2023-06-26T11:30:22;100865.25;;;37.52;nan
44992;BME280;56865;51.618;7.406;2023-06-26T11:32:52;100871.13;;;37.77;nan
44992;BME280;56865;51.618;7.406;2023-06-26T11:35:25;100884.53;;;37.87;nan
44992;BME280;56865;51.618;7.406;2023-06-26T11:37:57;100873.13;;;37.10;nan
44992;BME280;56865;51.618;7.406;2023-06-26T11:40:31;100884.25;;;37.48;nan
44992;BME280;56865;51.618;7.406;2023-06-26T11:43:04;100885.31;;;37.78;nan
44992;BME280;56865;51.618;7.406;2023-06-26T11:45:33;100894.69;;;37.61;nan
44992;BME280;56865;51.618;7.406;2023-06-26T11:48:03;100887.22;;;37.54;nan
44992;BME280;56865;51.618;7.406;2023-06-26T11:50:36;100896.66;;;38.01;nan
44992;BME280;56865;51.618;7.406;2023-06-26T11:53:07;100907.28;;;37.80;nan
44992;BME280;56865;51.618;7.406;2023-06-26T11:55:41;100894.44;;;37.31;nan
44992;BME280;56865;51.618;7.406;2023-06-26T11:58:13;100887.50;;;37.51;nan
44992;BME280;56865;51.618;7.406;2023-06-26T12:00:42;100887.34;;;37.85;nan
44992;BME280;56865;51.618;7.406;2023-06-26T12:03:13;100888.59;;;37.81;nan
44992;BME280;56865;51.618;7.406;2023-06-26T12:05:49;100894.63;;;38.14;nan
44992;BME280;56865;51.618;7.406;2023-06-26T12:08:19;100898.56;;;38.41;nan
44992;BME280;56865;51.618;7.406;2023-06-26T12:10:49;100889.59;;;38.42;nan
44992;BME280;56865;51.618;7.406;2023-06-26T12:13:19;100897.75;;;37.77;nan
44992;BME280;56865;51.618;7.406;2023-06-26T12:15:50;100918.31;;;37.54;nan
44992;BME280;56865;51.618;7.406;2023-06-26T12:18:21;100910.03;;;37.89;nan
44992;BME280;56865;51.618;7.406;2023-06-26T12:20:54;100911.34;;;37.95;nan
44992;BME280;56865;51.618;7.406;2023-06-26T12:23:24;100909.78;;;37.71;nan
44992;BME280;56865;51.618;7.406;2023-06-26T12:26:16;100910.03;;;38.11;nan
44992;BME280;56865;51.618;7.406;2023-06-26T12:28:49;100902.91;;;37.90;nan
44992;BME280;56865;51.618;7.406;2023-06-26T12:31:20;100915.75;;;38.06;nan
44992;BME280;56865;51.618;7.406;2023-06-26T12:33:51;100923.66;;;37.96;nan
44992;BME280;56865;51.618;7.406;2023-06-26T12:36:24;100914.81;;;37.75;nan
44992;BME280;56865;51.618;7.406;2023-06-26T12:38:54;100926.00;;;37.24;nan
44992;BME280;56865;51.618;7.406;2023-06-26T12:41:24;100926.22;;;37.44;nan
44992;BME280;56865;51.618;7.406;2023-06-26T12:43:55;100928.75;;;37.99;nan
44992;BME280;56865;51.618;7.406;2023-06-26T12:46:33;100941.63;;;37.62;nan
44992;BME280;56865;51.618;7.406;2023-06-26T12:49:03;100947.88;;;37.39;nan
44992;BME280;56865;51.618;7.406;2023-06-26T12:51:43;100939.19;;;37.70;nan
44992;BME280;56865;51.618;7.406;2023-06-26T12:54:13;100943.53;;;37.92;nan
44992;BME280;56865;51.618;7.406;2023-06-26T12:56:42;100952.22;;;37.29;nan
44992;BME280;56865;51.618;7.406;2023-06-26T12:59:12;100940.63;;;37.30;nan
44992;BME280;56865;51.618;7.406;2023-06-26T13:01:42;100937.34;;;37.70;nan
44992;BME280;56865;51.618;7.406;2023-06-26T13:04:12;100944.69;;;37.78;nan
44992;BME280;56865;51.618;7.406;2023-06-26T13:06:44;100945.25;;;37.61;nan
44992;BME280;56865;51.618;7.406;2023-06-26T13:09:14;100949.69;;;38.14;nan
44992;BME280;56865;51.618;7.406;2023-06-26T13:11:44;100954.19;;;38.34;nan
44992;BME280;56865;51.618;7.406;2023-06-26T13:14:14;100947.59;;;37.86;nan
44992;BME280;56865;51.618;7.406;2023-06-26T13:16:43;100948.00;;;38.34;nan
44992;BME280;56865;51.618;7.406;2023-06-26T13:19:13;100947.44;;;37.88;nan
44992;BME280;56865;51.618;7.406;2023-06-26T13:21:45;100952.69;;;38.20;nan
44992;BME280;56865;51.618;7.406;2023-06-26T13:24:15;100949.53;;;38.05;nan
44992;BME280;56865;51.618;7.406;2023-06-26T13:26:45;100961.91;;;38.16;nan
44992;BME280;56865;51.618;7.406;2023-06-26T13:29:14;100962.22;;;38.23;nan
44992;BME280;56865;51.618;7.406;2023-06-26T13:31:44;100968.78;;;38.40;nan
44992;BME280;56865;51.618;7.406;2023-06-26T13:34:20;100966.38;;;38.68;nan
44992;BME280;56865;51.618;7.406;2023-06-26T13:36:57;100969.56;;;38.93;nan
44992;BME280;56865;51.618;7.406;2023-06-26T13:39:27;100969.25;;;38.76;nan
44992;BME280;56865;51.618;7.406;2023-06-26T13:41:57;100975.97;;;38.80;nan
44992;BME280;56865;51.618;7.406;2023-06-26T13:44:26;100969.91;;;38.68;nan
44992;BME280;56865;51.618;7.406;2023-06-26T13:47:00;100980.09;;;38.94;nan
44992;BME280;56865;51.618;7.406;2023-06-26T13:49:30;100973.69;;;38.66;nan